Time;durP1;ratioP1;P1;durP2;ratioP2;P2;SDS_P1;SDS_P2;PMS_P1;PMS_P2;Temp;Humidity;BMP_temperature;BMP_pressure;BME280_temperature;BME280_humidity;BME280_pressure;Samples;Min_cycle;Max_cycle;Signal;HPM_P1;HPM_P2
2022/08/16 00:01:31;;;;;;;4.10;3.80;;;19.80;96.90;;;;;;5010537;28;20279;-64
2022/08/16 00:03:58;;;;;;;3.90;3.60;;;19.80;96.90;;;;;;5011311;28;20190;-64
2022/08/16 00:06:24;;;;;;;3.75;3.45;;;19.80;96.80;;;;;;5011348;28;20271;-64
2022/08/16 00:08:50;;;;;;;3.78;3.47;;;19.80;96.80;;;;;;5010063;28;20245;-64
2022/08/16 00:11:16;;;;;;;4.18;3.80;;;19.90;96.80;;;;;;5003843;28;20675;-64
2022/08/16 00:13:46;;;;;;;4.43;4.07;;;19.90;96.70;;;;;;5011444;28;20245;-65
2022/08/16 00:16:12;;;;;;;4.40;4.10;;;20.20;96.80;;;;;;5008714;28;20197;-64
2022/08/16 00:18:38;;;;;;;4.10;3.80;;;19.90;96.90;;;;;;5007040;28;20677;-64
2022/08/16 00:21:03;;;;;;;3.60;3.30;;;19.90;97.00;;;;;;5014652;28;20186;-64
2022/08/16 00:23:30;;;;;;;3.93;3.63;;;19.90;97.00;;;;;;5009616;28;20432;-64
2022/08/16 00:25:56;;;;;;;3.40;3.20;;;19.80;97.20;;;;;;5011693;28;20663;-64
2022/08/16 00:28:22;;;;;;;3.50;3.20;;;19.70;97.30;;;;;;5009249;28;20222;-64
2022/08/16 00:30:48;;;;;;;3.90;3.60;;;19.70;97.40;;;;;;5004146;28;20260;-64
2022/08/16 00:33:14;;;;;;;3.80;3.50;;;19.60;97.60;;;;;;5006628;28;20194;-64
2022/08/16 00:35:39;;;;;;;4.00;3.70;;;19.60;97.70;;;;;;5008989;28;20182;-64
2022/08/16 00:38:06;;;;;;;5.27;3.87;;;19.50;97.90;;;;;;5009048;28;20560;-64
2022/08/16 00:40:39;;;;;;;3.80;3.50;;;19.90;98.00;;;;;;5007615;28;20207;-65
2022/08/16 00:43:09;;;;;;;4.03;3.72;;;19.50;98.10;;;;;;5008682;28;20206;-64
2022/08/16 00:45:37;;;;;;;4.85;3.33;;;19.40;98.20;;;;;;5008575;28;20179;-64
2022/08/16 00:48:10;;;;;;;4.05;3.75;;;19.40;98.20;;;;;;5008145;28;20234;-64
2022/08/16 00:50:38;;;;;;;3.70;3.40;;;19.40;98.50;;;;;;5011923;28;20188;-64
2022/08/16 00:53:05;;;;;;;3.95;3.65;;;19.30;98.60;;;;;;5009916;28;20252;-64
2022/08/16 00:55:32;;;;;;;4.20;3.90;;;19.20;98.90;;;;;;5011498;28;20539;-64
2022/08/16 00:57:58;;;;;;;4.38;3.97;;;19.10;99.00;;;;;;5009452;28;20203;-64
2022/08/16 01:00:27;;;;;;;4.67;4.00;;;19.10;99.10;;;;;;5009131;28;20189;-64
2022/08/16 01:02:59;;;;;;;4.53;3.85;;;19.10;99.30;;;;;;5011765;28;20245;-64
2022/08/16 01:05:26;;;;;;;4.53;4.20;;;19.10;99.50;;;;;;5010598;28;20179;-64
2022/08/16 01:07:52;;;;;;;4.03;3.72;;;19.10;99.60;;;;;;5010524;28;20273;-64
2022/08/16 01:10:22;;;;;;;4.68;4.28;;;18.80;99.50;;;;;;5014108;28;20193;-64
2022/08/16 01:12:47;;;;;;;4.40;4.00;;;18.80;99.60;;;;;;5009857;28;20621;-64
2022/08/16 01:15:15;;;;;;;4.60;4.20;;;19.00;99.90;;;;;;5008791;28;20277;-64
2022/08/16 01:17:43;;;;;;;4.57;4.03;;;19.00;99.90;;;;;;5007633;28;20183;-64
2022/08/16 01:20:11;;;;;;;4.43;4.13;;;18.90;99.90;;;;;;5008354;28;20215;-63
2022/08/16 01:22:43;;;;;;;4.10;3.80;;;18.90;99.90;;;;;;5006845;28;20203;-64
2022/08/16 01:25:14;;;;;;;4.50;4.20;;;18.90;99.90;;;;;;5010521;28;20186;-64
2022/08/16 01:27:49;;;;;;;4.57;4.18;;;18.90;99.90;;;;;;5010062;28;20191;-64
2022/08/16 01:30:19;;;;;;;4.82;4.40;;;19.00;99.90;;;;;;5007587;28;20188;-64
2022/08/16 01:32:45;;;;;;;4.88;3.92;;;19.00;99.90;;;;;;5010362;28;20266;-65
2022/08/16 01:35:23;;;;;;;4.35;4.00;;;19.00;99.90;;;;;;5003854;28;20554;-64
2022/08/16 01:37:52;;;;;;;4.55;4.25;;;19.00;99.90;;;;;;4999525;28;20218;-64
2022/08/16 01:40:22;;;;;;;5.03;4.50;;;19.00;99.90;;;;;;5008002;28;20183;-64
2022/08/16 01:42:48;;;;;;;5.03;4.55;;;19.00;99.90;;;;;;5008615;28;20215;-64
2022/08/16 01:45:16;;;;;;;4.57;4.18;;;18.90;99.90;;;;;;5011440;28;20234;-64
2022/08/16 01:47:45;;;;;;;4.30;4.00;;;19.10;99.90;;;;;;5002863;28;20729;-64
2022/08/16 01:50:11;;;;;;;4.88;4.20;;;19.00;99.90;;;;;;5003734;28;20187;-64
2022/08/16 01:52:38;;;;;;;4.70;4.30;;;19.00;99.90;;;;;;5008328;28;20199;-65
2022/08/16 01:55:05;;;;;;;4.45;4.15;;;19.00;99.90;;;;;;5010019;28;20438;-64
2022/08/16 01:57:31;;;;;;;4.50;4.10;;;19.20;99.90;;;;;;5008682;28;20186;-64
2022/08/16 01:59:57;;;;;;;5.10;4.60;;;19.30;99.90;;;;;;5007498;28;20183;-63
2022/08/16 02:02:23;;;;;;;5.63;5.00;;;19.10;99.90;;;;;;5010652;28;20576;-64
2022/08/16 02:04:50;;;;;;;4.82;4.10;;;19.20;99.90;;;;;;5010186;28;20445;-64
2022/08/16 02:07:17;;;;;;;4.95;4.55;;;19.20;99.90;;;;;;5006364;28;20175;-64
2022/08/16 02:09:45;;;;;;;6.45;4.72;;;19.20;99.90;;;;;;5008714;28;20214;-64
2022/08/16 02:12:12;;;;;;;4.25;3.95;;;19.30;99.90;;;;;;5013765;28;20187;-64
2022/08/16 02:14:38;;;;;;;5.35;4.88;;;19.30;99.90;;;;;;5013608;28;20179;-64
2022/08/16 02:17:07;;;;;;;4.90;4.50;;;19.40;99.90;;;;;;5012018;28;20229;-64
2022/08/16 02:19:36;;;;;;;4.80;4.40;;;19.40;99.90;;;;;;5013766;28;20225;-64
2022/08/16 02:22:05;;;;;;;5.18;4.78;;;19.30;99.90;;;;;;5007500;28;20211;-64
2022/08/16 02:24:31;;;;;;;4.78;4.38;;;19.30;99.90;;;;;;5008743;28;20191;-64
2022/08/16 02:26:57;;;;;;;5.07;4.78;;;19.40;99.90;;;;;;5013517;28;20613;-64
2022/08/16 02:29:23;;;;;;;6.07;4.60;;;19.40;99.90;;;;;;5013600;28;20217;-64
2022/08/16 02:31:50;;;;;;;5.20;4.30;;;19.40;99.90;;;;;;5007452;28;20245;-64
2022/08/16 02:34:18;;;;;;;4.47;4.07;;;19.40;99.90;;;;;;5013435;28;20183;-64
2022/08/16 02:36:44;;;;;;;5.35;4.53;;;19.40;99.90;;;;;;5011197;28;20190;-64
2022/08/16 02:39:11;;;;;;;4.43;4.03;;;19.70;99.90;;;;;;5003801;28;20221;-64
2022/08/16 02:41:39;;;;;;;4.90;4.50;;;19.40;99.90;;;;;;5015562;28;20255;-64
2022/08/16 02:44:06;;;;;;;4.72;4.30;;;19.40;99.90;;;;;;5013169;28;20636;-64
2022/08/16 02:46:33;;;;;;;4.90;4.50;;;19.40;99.90;;;;;;5011419;28;20213;-64
2022/08/16 02:49:02;;;;;;;4.90;4.50;;;19.40;99.90;;;;;;5010703;28;20199;-64
2022/08/16 02:51:28;;;;;;;7.30;5.20;;;19.60;99.90;;;;;;5009153;28;20194;-64
2022/08/16 02:53:54;;;;;;;5.33;4.83;;;19.70;99.90;;;;;;5010639;28;20180;-64
2022/08/16 02:56:20;;;;;;;4.97;4.57;;;19.70;99.90;;;;;;5006533;28;20209;-65
2022/08/16 02:58:48;;;;;;;4.93;4.63;;;19.70;99.90;;;;;;5005880;28;20199;-64
2022/08/16 03:01:21;;;;;;;5.32;4.93;;;19.70;99.90;;;;;;5011070;28;20266;-64
2022/08/16 03:03:47;;;;;;;5.03;4.63;;;19.70;99.90;;;;;;5003533;28;20222;-64
2022/08/16 03:06:16;;;;;;;5.50;5.00;;;19.60;99.90;;;;;;5011936;28;20175;-64
2022/08/16 03:08:41;;;;;;;5.03;4.72;;;19.50;99.90;;;;;;5010092;28;20293;-65
2022/08/16 03:11:07;;;;;;;6.40;4.37;;;19.60;99.90;;;;;;5006307;28;20269;-65
2022/08/16 03:13:33;;;;;;;4.73;4.43;;;19.70;99.90;;;;;;5008788;28;20187;-65
2022/08/16 03:15:59;;;;;;;5.17;4.67;;;19.70;99.90;;;;;;5009706;28;20194;-65
2022/08/16 03:18:25;;;;;;;5.17;4.67;;;19.60;99.90;;;;;;5010951;28;20211;-65
2022/08/16 03:20:50;;;;;;;4.37;4.07;;;19.70;99.90;;;;;;5011980;28;20182;-66
2022/08/16 03:23:16;;;;;;;4.97;4.60;;;19.70;99.90;;;;;;5011684;28;20635;-65
2022/08/16 03:25:41;;;;;;;5.57;5.07;;;19.70;99.90;;;;;;5012338;28;20183;-65
2022/08/16 03:28:07;;;;;;;6.80;4.67;;;19.70;99.90;;;;;;5010854;28;20206;-65
2022/08/16 03:30:34;;;;;;;5.07;4.67;;;19.70;99.90;;;;;;5012360;28;20722;-65
2022/08/16 03:33:01;;;;;;;5.50;5.00;;;19.60;99.90;;;;;;5011455;28;20337;-65
2022/08/16 03:35:31;;;;;;;5.70;5.20;;;19.50;99.90;;;;;;5005236;28;20180;-65
2022/08/16 03:37:59;;;;;;;5.15;4.75;;;19.70;99.90;;;;;;5006823;28;20211;-65
2022/08/16 03:40:26;;;;;;;6.35;4.50;;;19.40;99.90;;;;;;5000210;28;20191;-65
2022/08/16 03:42:52;;;;;;;4.78;4.43;;;19.40;99.90;;;;;;5011616;28;20211;-64
2022/08/16 03:45:19;;;;;;;5.75;5.25;;;19.40;99.90;;;;;;5011494;28;20202;-65
2022/08/16 03:47:46;;;;;;;5.03;4.57;;;19.30;99.90;;;;;;5008499;28;20551;-64
2022/08/16 03:50:13;;;;;;;4.75;4.35;;;19.30;99.90;;;;;;5011969;28;20206;-65
2022/08/16 03:52:39;;;;;;;5.32;4.25;;;19.30;99.90;;;;;;5003515;28;20192;-65
2022/08/16 03:55:06;;;;;;;5.22;4.80;;;19.30;99.90;;;;;;5012269;28;20298;-65
2022/08/16 03:57:32;;;;;;;4.90;4.50;;;19.30;99.90;;;;;;5011365;28;20179;-65
2022/08/16 03:59:58;;;;;;;5.40;4.90;;;19.20;99.90;;;;;;5007602;28;20190;-65
2022/08/16 04:02:23;;;;;;;5.35;4.95;;;19.20;99.90;;;;;;5014717;28;20218;-65
2022/08/16 04:04:50;;;;;;;5.67;5.17;;;19.20;99.90;;;;;;5017654;28;20198;-63
2022/08/16 04:07:15;;;;;;;6.70;4.82;;;18.90;99.90;;;;;;5006398;28;20189;-63
2022/08/16 04:09:41;;;;;;;5.30;4.90;;;19.10;99.90;;;;;;5009489;28;20565;-64
2022/08/16 04:12:09;;;;;;;6.13;5.53;;;19.10;99.90;;;;;;5017547;28;20500;-63
2022/08/16 04:14:35;;;;;;;4.97;4.57;;;19.00;99.90;;;;;;5005864;28;20194;-63
2022/08/16 04:17:03;;;;;;;5.18;4.60;;;19.00;99.90;;;;;;5013642;28;20186;-63
2022/08/16 04:19:29;;;;;;;5.53;5.03;;;19.00;99.90;;;;;;5008351;28;20211;-64
2022/08/16 04:21:54;;;;;;;5.30;4.83;;;19.00;99.90;;;;;;5008871;28;20245;-63
2022/08/16 04:24:20;;;;;;;4.80;4.40;;;19.00;99.90;;;;;;5010538;28;20460;-64
2022/08/16 04:26:47;;;;;;;5.50;5.03;;;18.90;99.90;;;;;;5011813;28;20193;-64
2022/08/16 04:29:14;;;;;;;5.90;5.30;;;19.00;99.90;;;;;;5006311;28;20286;-64
2022/08/16 04:31:40;;;;;;;4.82;4.53;;;19.00;99.90;;;;;;5008344;28;20212;-63
2022/08/16 04:34:06;;;;;;;5.00;4.60;;;19.10;99.90;;;;;;5006769;28;20270;-62
2022/08/16 04:36:31;;;;;;;5.00;4.60;;;19.10;99.90;;;;;;5010349;28;20186;-62
2022/08/16 04:38:57;;;;;;;5.27;4.87;;;19.20;99.90;;;;;;4999676;28;20241;-66
2022/08/16 04:41:23;;;;;;;4.80;4.40;;;19.20;99.90;;;;;;5010568;28;20186;-63
2022/08/16 04:43:50;;;;;;;5.23;4.53;;;19.30;99.90;;;;;;5010109;28;20524;-62
2022/08/16 04:46:16;;;;;;;6.25;4.95;;;19.30;99.90;;;;;;5009894;28;20457;-62
2022/08/16 04:48:42;;;;;;;5.22;4.72;;;19.40;99.90;;;;;;5009561;28;20206;-62
2022/08/16 04:51:09;;;;;;;5.53;5.00;;;19.40;99.90;;;;;;5009639;28;20183;-61
2022/08/16 04:53:35;;;;;;;5.25;4.82;;;19.40;99.90;;;;;;5008451;28;20230;-64
2022/08/16 04:56:01;;;;;;;6.25;5.13;;;19.50;99.90;;;;;;5003035;28;20664;-61
2022/08/16 04:58:30;;;;;;;5.45;4.95;;;19.70;99.90;;;;;;5006125;28;20307;-62
2022/08/16 05:00:56;;;;;;;5.50;5.00;;;19.80;99.90;;;;;;5010162;28;20193;-63
2022/08/16 05:03:22;;;;;;;5.72;5.22;;;19.90;99.90;;;;;;5010461;28;20226;-68
2022/08/16 05:05:49;;;;;;;5.10;4.70;;;20.10;99.90;;;;;;5006775;28;20183;-64
2022/08/16 05:08:14;;;;;;;5.32;4.82;;;20.20;99.90;;;;;;5004689;28;20567;-70
2022/08/16 05:10:40;;;;;;;5.37;4.87;;;20.20;99.90;;;;;;5009949;28;20244;-69
2022/08/16 05:13:06;;;;;;;5.30;4.80;;;20.20;99.90;;;;;;5009862;28;20190;-51
2022/08/16 05:15:33;;;;;;;7.47;5.28;;;20.30;99.90;;;;;;5006897;28;20636;-51
2022/08/16 05:17:59;;;;;;;5.88;5.38;;;20.20;99.90;;;;;;5009247;28;20297;-51
2022/08/16 05:20:26;;;;;;;7.20;5.32;;;20.10;99.90;;;;;;5007478;28;20213;-53
2022/08/16 05:22:51;;;;;;;5.05;4.63;;;20.10;99.90;;;;;;5008881;28;20296;-52
2022/08/16 05:25:18;;;;;;;5.00;4.70;;;20.10;99.90;;;;;;5005738;28;20218;-53
2022/08/16 05:27:44;;;;;;;5.30;4.78;;;20.10;99.90;;;;;;5025491;28;20188;-53
2022/08/16 05:30:14;;;;;;;5.60;5.07;;;20.30;99.90;;;;;;5010556;28;20297;-52
2022/08/16 05:32:41;;;;;;;8.48;5.82;;;20.20;99.90;;;;;;5003971;28;20187;-52
2022/08/16 05:35:09;;;;;;;6.28;5.65;;;20.30;99.90;;;;;;5007264;28;20667;-69
2022/08/16 05:37:37;;;;;;;5.75;5.20;;;20.10;99.90;;;;;;5002348;28;20191;-60
2022/08/16 05:40:04;;;;;;;5.30;4.80;;;20.50;99.90;;;;;;5004483;28;20182;-64
2022/08/16 05:42:30;;;;;;;5.65;5.25;;;20.70;99.90;;;;;;5001332;28;20350;-62
2022/08/16 05:44:55;;;;;;;5.97;5.37;;;20.70;99.90;;;;;;5009178;28;20893;-63
2022/08/16 05:47:21;;;;;;;5.70;5.20;;;20.70;99.90;;;;;;5008326;28;20227;-61
2022/08/16 05:49:47;;;;;;;6.50;4.83;;;20.90;99.80;;;;;;5006000;28;20711;-63
2022/08/16 05:52:12;;;;;;;5.07;4.67;;;20.90;99.60;;;;;;5008721;28;20201;-62
2022/08/16 05:54:39;;;;;;;4.50;4.10;;;21.00;99.40;;;;;;5005458;28;20219;-61
2022/08/16 05:57:05;;;;;;;6.55;5.05;;;21.10;99.30;;;;;;5000175;28;20186;-63
2022/08/16 05:59:31;;;;;;;6.80;5.40;;;21.20;99.00;;;;;;5009790;28;20214;-68
2022/08/16 06:01:57;;;;;;;6.43;5.80;;;21.20;99.00;;;;;;5006382;28;20215;-66
2022/08/16 06:04:23;;;;;;;5.82;5.20;;;21.20;98.90;;;;;;5005667;28;20178;-67
2022/08/16 06:06:49;;;;;;;5.63;5.22;;;21.20;99.00;;;;;;5006064;28;20272;-66
2022/08/16 06:09:16;;;;;;;7.10;4.72;;;21.30;98.80;;;;;;5008236;28;20348;-62
2022/08/16 06:11:43;;;;;;;6.03;5.23;;;21.30;98.70;;;;;;5007842;28;20202;-62
2022/08/16 06:14:10;;;;;;;7.20;5.25;;;21.30;98.70;;;;;;5008073;28;20492;-65
2022/08/16 06:16:35;;;;;;;5.80;5.05;;;21.40;98.60;;;;;;5008774;28;20189;-65
2022/08/16 06:19:01;;;;;;;5.10;4.60;;;21.50;98.30;;;;;;4999233;28;20207;-67
2022/08/16 06:21:27;;;;;;;6.67;5.23;;;21.50;98.10;;;;;;5008483;28;20438;-66
2022/08/16 06:23:53;;;;;;;5.50;5.00;;;21.60;98.00;;;;;;4999546;28;20505;-69
2022/08/16 06:26:19;;;;;;;5.77;5.27;;;21.60;97.90;;;;;;5006003;28;20338;-59
2022/08/16 06:28:44;;;;;;;5.00;4.60;;;21.60;97.90;;;;;;5005133;28;20261;-61
2022/08/16 06:31:12;;;;;;;5.07;4.67;;;21.60;97.80;;;;;;5006383;28;20190;-68
2022/08/16 06:33:38;;;;;;;4.97;4.60;;;21.60;98.00;;;;;;5005119;28;20267;-71
2022/08/16 06:36:05;;;;;;;7.53;4.93;;;21.70;97.70;;;;;;5007959;28;20492;-67
2022/08/16 06:38:31;;;;;;;5.43;4.93;;;21.80;97.50;;;;;;5008303;28;20522;-63
2022/08/16 06:40:56;;;;;;;5.13;4.73;;;21.90;97.30;;;;;;5008270;28;20446;-64
2022/08/16 06:43:22;;;;;;;5.60;5.10;;;22.00;97.30;;;;;;5009138;28;20215;-67
2022/08/16 06:45:48;;;;;;;5.20;4.70;;;22.20;96.90;;;;;;5006048;28;20310;-64
2022/08/16 06:48:13;;;;;;;7.27;5.47;;;22.40;96.50;;;;;;5002968;28;20207;-66
2022/08/16 06:50:39;;;;;;;6.53;5.73;;;22.50;96.20;;;;;;5004275;28;20181;-63
2022/08/16 06:53:05;;;;;;;5.10;4.60;;;22.50;96.20;;;;;;5007877;28;20187;-65
2022/08/16 06:55:33;;;;;;;6.20;5.60;;;22.60;96.10;;;;;;5009203;28;20549;-64
2022/08/16 06:57:59;;;;;;;5.90;5.40;;;22.70;96.20;;;;;;5012415;28;20500;-65
2022/08/16 07:00:26;;;;;;;6.27;5.77;;;22.70;95.90;;;;;;5012658;28;20568;-68
2022/08/16 07:02:52;;;;;;;5.50;5.10;;;22.80;95.60;;;;;;5012666;28;20469;-67
2022/08/16 07:05:18;;;;;;;6.50;5.10;;;23.00;95.30;;;;;;5012589;28;20858;-66
2022/08/16 07:07:47;;;;;;;5.33;4.93;;;23.30;95.00;;;;;;5004181;28;20541;-66
2022/08/16 07:10:13;;;;;;;5.40;5.00;;;23.60;94.50;;;;;;5003593;28;20448;-64
2022/08/16 07:12:39;;;;;;;5.43;4.93;;;23.90;93.70;;;;;;5010280;28;20442;-64
2022/08/16 07:15:05;;;;;;;7.17;5.63;;;24.40;92.80;;;;;;5006492;28;20963;-65
2022/08/16 07:17:32;;;;;;;5.17;4.77;;;25.60;91.00;;;;;;5010924;28;20266;-65
2022/08/16 07:19:58;;;;;;;4.87;4.57;;;27.30;85.80;;;;;;5011834;28;20473;-64
2022/08/16 07:22:24;;;;;;;5.20;4.80;;;28.80;78.10;;;;;;5006270;28;20929;-60
2022/08/16 07:24:50;;;;;;;5.03;4.63;;;29.40;71.50;;;;;;5010585;28;20496;-60
2022/08/16 07:27:16;;;;;;;4.70;4.40;;;31.20;67.60;;;;;;5010616;28;20438;-60
2022/08/16 07:29:42;;;;;;;4.87;4.47;;;33.50;60.00;;;;;;5009071;28;20237;-62
2022/08/16 07:32:08;;;;;;;4.80;4.40;;;34.40;55.90;;;;;;5010363;28;20442;-61
2022/08/16 07:34:34;;;;;;;5.67;5.13;;;34.30;53.20;;;;;;5011321;28;20199;-64
2022/08/16 07:37:07;;;;;;;4.50;4.17;;;35.40;51.90;;;;;;5008742;28;20437;-67
2022/08/16 07:39:33;;;;;;;5.37;4.90;;;35.90;50.10;;;;;;5008641;28;20215;-66
2022/08/16 07:41:59;;;;;;;5.17;4.77;;;35.80;49.10;;;;;;5011667;28;20524;-66
2022/08/16 07:44:24;;;;;;;4.83;4.43;;;36.00;48.50;;;;;;5016627;28;20867;-61
2022/08/16 07:46:50;;;;;;;5.07;4.67;;;37.30;46.10;;;;;;5007425;28;20249;-61
2022/08/16 07:49:16;;;;;;;5.73;5.33;;;37.20;44.90;;;;;;5008643;28;20199;-62
2022/08/16 07:51:42;;;;;;;4.90;4.50;;;37.00;45.60;;;;;;5010027;28;20270;-63
2022/08/16 07:54:09;;;;;;;5.87;5.47;;;37.80;43.70;;;;;;5004982;28;20187;-60
2022/08/16 07:56:35;;;;;;;5.67;4.93;;;37.30;43.40;;;;;;5007919;28;20187;-63
2022/08/16 07:59:01;;;;;;;5.50;5.13;;;36.70;43.70;;;;;;5011916;28;20464;-60
2022/08/16 08:01:29;;;;;;;6.23;5.73;;;38.30;42.10;;;;;;5009403;28;20220;-60
2022/08/16 08:03:55;;;;;;;5.23;4.73;;;37.90;41.70;;;;;;5009842;28;20622;-61
2022/08/16 08:06:23;;;;;;;5.83;5.40;;;37.00;43.10;;;;;;5009284;28;20823;-61
2022/08/16 08:08:49;;;;;;;6.23;5.20;;;37.60;41.70;;;;;;5007740;28;20461;-71
2022/08/16 08:11:15;;;;;;;6.40;5.80;;;38.30;40.20;;;;;;5010122;28;20468;-71
2022/08/16 08:13:40;;;;;;;6.10;5.47;;;37.20;41.00;;;;;;5005002;28;20197;-61
2022/08/16 08:16:06;;;;;;;5.80;5.37;;;37.50;40.20;;;;;;5011814;28;20524;-62
2022/08/16 08:18:31;;;;;;;5.93;5.47;;;37.30;40.50;;;;;;5009192;28;20349;-62
2022/08/16 08:20:57;;;;;;;7.00;6.40;;;36.20;41.20;;;;;;5008667;28;20190;-62
2022/08/16 08:23:24;;;;;;;5.97;5.47;;;35.30;43.00;;;;;;5004188;28;20217;-63
2022/08/16 08:25:50;;;;;;;6.83;5.13;;;34.30;45.00;;;;;;5010529;28;20183;-63
2022/08/16 08:28:16;;;;;;;5.87;5.23;;;33.10;48.60;;;;;;5010181;28;20467;-62
2022/08/16 08:30:43;;;;;;;6.67;6.17;;;31.60;51.80;;;;;;5007887;28;20448;-65
2022/08/16 08:33:08;;;;;;;6.27;5.87;;;31.20;51.60;;;;;;5009669;28;20472;-63
2022/08/16 08:35:35;;;;;;;5.90;5.50;;;30.70;52.70;;;;;;5010110;28;20465;-62
2022/08/16 08:38:01;;;;;;;7.33;6.00;;;30.50;54.20;;;;;;5002023;28;20194;-67
2022/08/16 08:40:28;;;;;;;5.30;4.90;;;30.60;55.40;;;;;;5001629;28;20435;-69
2022/08/16 08:42:59;;;;;;;6.13;5.60;;;30.10;56.50;;;;;;5008055;28;20997;-67
2022/08/16 08:45:25;;;;;;;6.10;5.60;;;30.00;56.90;;;;;;5008722;28;20438;-68
2022/08/16 08:47:50;;;;;;;6.27;5.73;;;29.70;57.00;;;;;;5009855;28;20471;-68
2022/08/16 08:50:16;;;;;;;5.73;5.20;;;29.50;57.60;;;;;;5010443;28;20182;-68
2022/08/16 08:52:43;;;;;;;9.07;6.33;;;29.40;58.80;;;;;;5007925;28;20524;-64
2022/08/16 08:55:12;;;;;;;7.60;5.83;;;28.70;60.00;;;;;;5009732;28;20708;-63
2022/08/16 08:57:40;;;;;;;7.83;6.47;;;28.50;61.50;;;;;;5007796;28;20447;-66
2022/08/16 09:00:06;;;;;;;7.23;6.73;;;28.10;60.70;;;;;;5009330;28;20442;-65
2022/08/16 09:02:32;;;;;;;6.63;5.97;;;27.70;62.20;;;;;;5008998;28;20525;-69
2022/08/16 09:04:58;;;;;;;6.30;5.80;;;27.30;65.30;;;;;;5009586;28;20481;-68
2022/08/16 09:07:23;;;;;;;6.07;5.57;;;28.00;65.20;;;;;;5010073;28;20264;-69
2022/08/16 09:09:49;;;;;;;5.70;5.30;;;29.70;59.60;;;;;;5010034;28;20202;-64
2022/08/16 09:12:17;;;;;;;6.00;5.60;;;31.50;56.20;;;;;;5007951;28;20244;-66
2022/08/16 09:14:44;;;;;;;6.60;6.07;;;32.10;53.60;;;;;;5006771;28;20280;-64
2022/08/16 09:17:10;;;;;;;6.37;5.87;;;32.00;52.90;;;;;;5009678;28;20483;-65
2022/08/16 09:19:36;;;;;;;6.50;5.97;;;31.70;53.80;;;;;;5008452;28;21024;-69
2022/08/16 09:22:04;;;;;;;6.63;6.03;;;31.10;54.90;;;;;;5008520;28;20987;-66
2022/08/16 09:24:31;;;;;;;6.60;6.00;;;30.30;56.10;;;;;;5009703;28;20439;-68
2022/08/16 09:26:56;;;;;;;6.70;6.20;;;29.40;57.60;;;;;;5009646;28;20534;-64
2022/08/16 09:29:22;;;;;;;6.63;5.93;;;28.60;59.50;;;;;;5009917;28;20980;-66
2022/08/16 09:31:48;;;;;;;5.47;5.07;;;29.30;59.20;;;;;;5006916;28;20210;-68
2022/08/16 09:34:14;;;;;;;9.50;7.53;;;30.40;57.20;;;;;;5007773;28;20210;-69
2022/08/16 09:36:40;;;;;;;6.77;6.17;;;31.10;55.30;;;;;;5005887;28;20577;-69
2022/08/16 09:39:05;;;;;;;6.20;5.70;;;31.20;54.70;;;;;;5007540;28;20462;-65
2022/08/16 09:41:32;;;;;;;5.97;5.53;;;30.80;54.80;;;;;;5010030;28;20469;-65
2022/08/16 09:43:58;;;;;;;6.10;5.60;;;30.80;55.40;;;;;;5007146;28;20206;-65
2022/08/16 09:46:24;;;;;;;5.90;5.40;;;30.60;55.30;;;;;;5008802;28;20448;-65
2022/08/16 09:48:51;;;;;;;7.37;5.73;;;30.50;55.20;;;;;;5006343;28;20469;-70
2022/08/16 09:51:18;;;;;;;6.10;5.70;;;30.40;56.00;;;;;;5009806;28;20430;-67
2022/08/16 09:53:46;;;;;;;7.40;6.70;;;30.30;56.10;;;;;;5008464;28;20541;-67
2022/08/16 09:56:31;;;;;;;6.80;6.30;;;30.10;56.30;;;;;;5009504;28;20452;-67
2022/08/16 09:58:58;;;;;;;7.40;5.90;;;29.70;57.20;;;;;;5009135;28;20463;-67
2022/08/16 10:01:24;;;;;;;7.07;6.47;;;29.20;58.00;;;;;;5004322;28;20474;-64
2022/08/16 10:03:51;;;;;;;7.30;6.77;;;28.70;58.90;;;;;;5004446;28;20495;-59
2022/08/16 10:06:20;;;;;;;5.47;4.97;;;28.30;58.50;;;;;;5008937;28;20472;-59
2022/08/16 10:08:47;;;;;;;3.90;3.60;;;28.50;60.00;;;;;;5008507;28;20490;-59
2022/08/16 10:13:58;;;;;;;7.23;6.50;;;27.70;62.90;;;;;;5014079;28;20484;-68
2022/08/16 10:16:24;;;;;;;8.23;5.00;;;27.00;62.80;;;;;;5001740;28;20450;-65
2022/08/16 10:18:50;;;;;;;5.20;4.80;;;27.20;65.70;;;;;;5005919;28;20842;-66
2022/08/16 10:21:16;;;;;;;5.33;4.87;;;27.10;65.60;;;;;;5008515;28;20244;-65
2022/08/16 10:23:43;;;;;;;7.20;6.53;;;27.10;65.20;;;;;;5008924;28;20887;-65
2022/08/16 10:26:09;;;;;;;6.20;4.90;;;27.10;65.00;;;;;;5008377;28;20559;-66
2022/08/16 10:28:35;;;;;;;7.60;6.90;;;26.90;65.50;;;;;;5006930;28;20480;-66
2022/08/16 10:31:03;;;;;;;6.50;5.40;;;26.90;65.50;;;;;;5002771;28;20621;-68
2022/08/16 10:33:29;;;;;;;6.20;5.60;;;27.00;66.10;;;;;;5009580;28;20540;-63
2022/08/16 10:35:55;;;;;;;5.70;4.53;;;26.90;65.90;;;;;;5011264;28;20495;-64
2022/08/16 10:38:21;;;;;;;7.83;6.20;;;27.00;67.00;;;;;;5008416;28;20499;-63
2022/08/16 10:40:46;;;;;;;5.37;4.93;;;27.30;65.80;;;;;;5010255;28;20989;-63
2022/08/16 10:43:13;;;;;;;5.70;5.20;;;27.50;65.60;;;;;;5008736;28;20221;-63
2022/08/16 10:45:40;;;;;;;6.10;5.50;;;27.50;65.00;;;;;;5010299;28;20443;-63
2022/08/16 10:48:08;;;;;;;5.17;4.73;;;27.60;64.70;;;;;;5013080;28;20959;-64
2022/08/16 10:50:35;;;;;;;6.73;5.20;;;27.60;65.30;;;;;;5009812;28;20443;-63
2022/08/16 10:53:05;;;;;;;7.83;5.40;;;27.70;64.80;;;;;;5009399;28;20514;-63
2022/08/16 10:55:33;;;;;;;7.73;6.97;;;27.80;65.30;;;;;;5007462;28;20445;-65
2022/08/16 10:58:01;;;;;;;7.73;7.13;;;27.80;63.70;;;;;;5010240;28;20470;-63
2022/08/16 11:00:27;;;;;;;9.63;7.17;;;27.60;62.80;;;;;;5011170;28;20438;-62
2022/08/16 11:02:53;;;;;;;7.57;6.27;;;27.50;63.40;;;;;;5012319;28;20477;-63
2022/08/16 11:05:18;;;;;;;11.47;6.93;;;27.60;63.20;;;;;;5017032;28;20956;-62
2022/08/16 11:07:48;;;;;;;5.90;5.47;;;27.80;64.50;;;;;;5011082;28;20212;-63
2022/08/16 11:10:17;;;;;;;7.07;6.57;;;28.20;63.30;;;;;;5009266;28;20207;-63
2022/08/16 11:12:43;;;;;;;6.80;6.30;;;28.40;61.30;;;;;;5010549;28;20486;-63
2022/08/16 11:15:09;;;;;;;6.90;6.23;;;28.20;61.20;;;;;;5008570;28;20482;-63
2022/08/16 11:17:38;;;;;;;6.90;6.40;;;28.20;62.90;;;;;;5009589;28;20449;-63
2022/08/16 11:20:05;;;;;;;6.13;5.73;;;28.10;61.60;;;;;;5010955;28;20442;-63
2022/08/16 11:22:32;;;;;;;7.03;6.43;;;28.10;61.90;;;;;;5012755;28;20475;-62
2022/08/16 11:24:57;;;;;;;7.30;6.70;;;28.10;61.50;;;;;;5010359;28;20445;-63
2022/08/16 11:27:24;;;;;;;6.40;5.90;;;28.20;61.10;;;;;;5010947;28;20448;-65
2022/08/16 11:29:52;;;;;;;10.90;5.97;;;28.50;60.10;;;;;;5008851;28;20231;-63
2022/08/16 11:32:18;;;;;;;6.30;5.70;;;28.80;58.70;;;;;;5011034;28;20439;-62
2022/08/16 11:34:44;;;;;;;5.47;5.07;;;29.10;57.30;;;;;;5009584;28;20866;-64
2022/08/16 11:37:09;;;;;;;6.30;5.70;;;29.30;57.70;;;;;;5007782;28;20445;-64
2022/08/16 11:39:35;;;;;;;6.53;6.03;;;29.40;57.50;;;;;;5011616;28;20233;-65
2022/08/16 11:42:01;;;;;;;8.07;7.47;;;29.40;57.00;;;;;;5009838;28;20272;-62
2022/08/16 11:44:27;;;;;;;6.37;5.87;;;29.20;57.00;;;;;;5011712;28;20269;-62
2022/08/16 11:46:52;;;;;;;6.23;5.70;;;29.20;57.90;;;;;;5004571;28;20520;-60
2022/08/16 11:49:18;;;;;;;5.37;4.97;;;28.90;58.40;;;;;;5009674;28;20220;-60
2022/08/16 11:51:44;;;;;;;5.77;5.27;;;28.40;59.60;;;;;;5009752;28;20720;-60
2022/08/16 11:54:13;;;;;;;6.03;5.50;;;28.20;59.70;;;;;;5010811;28;20449;-60
2022/08/16 11:56:39;;;;;;;5.03;4.63;;;28.00;59.80;;;;;;5010727;28;20462;-61
2022/08/16 11:59:05;;;;;;;5.20;4.80;;;28.40;60.60;;;;;;5010384;28;21021;-61
2022/08/16 12:01:32;;;;;;;4.80;4.40;;;28.60;59.10;;;;;;5009396;28;20210;-60
2022/08/16 12:03:58;;;;;;;6.80;5.67;;;28.50;59.70;;;;;;5011043;28;20480;-61
2022/08/16 12:06:23;;;;;;;6.17;5.67;;;28.40;60.00;;;;;;5009308;28;20818;-61
2022/08/16 12:08:50;;;;;;;5.60;5.20;;;28.10;60.40;;;;;;4999992;28;20457;-62
2022/08/16 12:11:16;;;;;;;5.80;5.40;;;28.00;61.50;;;;;;5011204;28;20239;-63
2022/08/16 12:13:43;;;;;;;6.70;6.10;;;28.30;61.40;;;;;;5008699;28;20455;-57
2022/08/16 12:16:09;;;;;;;7.10;6.63;;;27.80;60.10;;;;;;5008112;28;20650;-58
2022/08/16 12:18:35;;;;;;;6.73;6.17;;;27.90;59.60;;;;;;5010306;28;20482;-60
2022/08/16 12:21:01;;;;;;;6.87;6.30;;;28.20;58.80;;;;;;5011074;28;20449;-60
2022/08/16 12:23:27;;;;;;;6.13;5.70;;;28.30;58.60;;;;;;5003869;28;20553;-57
2022/08/16 12:25:53;;;;;;;6.30;5.73;;;28.40;57.70;;;;;;5009845;28;20474;-58
2022/08/16 12:28:19;;;;;;;7.57;6.50;;;28.60;57.40;;;;;;5010546;28;20865;-58
2022/08/16 12:30:46;;;;;;;6.43;5.83;;;28.70;56.80;;;;;;5010471;28;20338;-58
2022/08/16 12:33:15;;;;;;;6.57;6.07;;;28.80;57.20;;;;;;5010433;28;20200;-58
2022/08/16 12:35:41;;;;;;;6.40;6.00;;;28.70;56.90;;;;;;5007862;28;20537;-60
2022/08/16 12:38:08;;;;;;;7.47;6.77;;;28.80;56.60;;;;;;5007974;28;20485;-60
2022/08/16 12:40:36;;;;;;;5.70;5.20;;;28.90;57.20;;;;;;5009465;28;20450;-60
2022/08/16 12:43:05;;;;;;;7.33;5.70;;;29.00;56.60;;;;;;5000209;28;20476;-58
2022/08/16 12:45:34;;;;;;;5.83;5.40;;;29.20;55.80;;;;;;5005697;28;20441;-59
2022/08/16 12:50:44;;;;;;;6.83;5.10;;;29.20;55.60;;;;;;5008117;28;20510;-60